Cat Spring, Texas
Current Conditions -  °F | °C
As of 6:15 PM on Sunday 25 Jan 2015 (Local Time) from KELA Reporting Station
Clear Clear  
Wind Chill: 59°   Ceiling: Unl
Heat Index: 59°   Visibility: 10mi
Dew Point: 43°   Wind: 7mph
Humidity: 56%   Direction: 300°WNW
Pressure: 30.08"   Gusts: NA
Location:  29.85°N, 96.33°W
Report Text: KELA 260015Z AUTO 30006KT 10SM CLR 15/06 A3008 RMK AO2 T01500062
Loading
Personal Weather Stations






























Interactive Weather Map New forecast layout! Learn more

10-Day Weather Forecast

Advertisements
Track Severe Weather on mobile